createdAt,value
2023-02-14T00:00:10.202Z,-2.46
2023-02-14T00:02:38.139Z,-2.50
2023-02-14T00:05:08.080Z,-2.36
2023-02-14T00:07:35.988Z,-2.50
2023-02-14T00:10:03.955Z,-2.50
2023-02-14T00:12:31.879Z,-2.57
2023-02-14T00:15:16.981Z,-2.52
2023-02-14T00:17:44.896Z,-2.62
2023-02-14T00:20:14.266Z,-2.64
2023-02-14T00:22:42.206Z,-2.41
2023-02-14T00:25:10.130Z,-2.31
2023-02-14T00:27:38.080Z,-2.55
2023-02-14T00:30:07.361Z,-2.59
2023-02-14T00:32:35.303Z,-2.40
2023-02-14T00:35:03.200Z,-2.52
2023-02-14T00:37:32.470Z,-2.50
2023-02-14T00:40:00.420Z,-2.48
2023-02-14T00:42:28.414Z,-2.61
2023-02-14T00:44:56.330Z,-2.59
2023-02-14T00:47:24.278Z,-2.56
2023-02-14T00:49:52.227Z,-2.84
2023-02-14T00:52:20.175Z,-2.85
2023-02-14T00:54:49.458Z,-2.93
2023-02-14T00:57:17.378Z,-2.99
2023-02-14T00:59:45.264Z,-3.01
2023-02-14T01:02:13.209Z,-2.91
2023-02-14T01:04:41.131Z,-2.91
2023-02-14T01:07:09.007Z,-2.90
2023-02-14T01:09:36.863Z,-2.60
2023-02-14T01:12:06.758Z,-2.67
2023-02-14T01:14:34.663Z,-2.91
2023-02-14T01:17:02.584Z,-2.74
2023-02-14T01:19:30.790Z,-2.79
2023-02-14T01:21:58.699Z,-2.97
2023-02-14T01:24:26.690Z,-3.02
2023-02-14T01:26:54.583Z,-2.85
2023-02-14T01:29:23.819Z,-2.86
2023-02-14T01:31:51.728Z,-2.98
2023-02-14T01:34:19.660Z,-2.94
2023-02-14T01:36:47.552Z,-2.81
2023-02-14T01:39:17.715Z,-2.88
2023-02-14T01:41:48.552Z,-2.93
2023-02-14T01:44:53.904Z,-2.93
2023-02-14T01:47:23.503Z,-2.99
2023-02-14T01:49:54.053Z,-3.05
2023-02-14T01:52:25.274Z,-3.13
2023-02-14T01:54:56.257Z,-3.04
2023-02-14T01:57:26.009Z,-3.14
2023-02-14T01:59:55.424Z,-3.10
2023-02-14T02:02:24.782Z,-2.93
2023-02-14T02:04:55.268Z,-3.05
2023-02-14T02:07:25.920Z,-3.07
2023-02-14T02:09:55.809Z,-3.10
2023-02-14T02:12:23.932Z,-2.85
2023-02-14T02:14:54.272Z,-2.71
2023-02-14T02:17:27.998Z,-2.56
2023-02-14T02:20:18.669Z,-2.56
2023-02-14T02:23:17.666Z,-2.54
2023-02-14T02:26:04.670Z,-2.55
2023-02-14T02:29:03.294Z,-2.46
2023-02-14T02:31:43.374Z,-2.54
2023-02-14T02:34:41.570Z,-2.48
2023-02-14T02:37:23.554Z,-2.27
2023-02-14T02:40:03.130Z,-2.45
2023-02-14T02:42:37.321Z,-2.54
2023-02-14T02:45:12.522Z,-2.72
2023-02-14T02:47:45.489Z,-2.76
2023-02-14T02:50:38.357Z,-2.84
2023-02-14T02:53:11.746Z,-2.84
2023-02-14T02:56:01.690Z,-2.59
2023-02-14T02:58:32.664Z,-2.80
2023-02-14T03:01:02.667Z,-2.73
2023-02-14T03:03:49.224Z,-2.65
2023-02-14T03:06:17.119Z,-2.59
2023-02-14T03:08:46.437Z,-2.45
2023-02-14T03:11:14.819Z,-2.37
2023-02-14T03:14:04.415Z,-2.34
2023-02-14T03:16:35.846Z,-2.39
2023-02-14T03:19:50.960Z,-2.42
2023-02-14T03:22:24.711Z,-2.53
2023-02-14T03:24:57.793Z,-2.61
2023-02-14T03:27:28.656Z,-2.54
2023-02-14T03:30:00.307Z,-2.74
2023-02-14T03:32:32.985Z,-2.84
2023-02-14T03:35:06.823Z,-2.92
2023-02-14T03:37:40.184Z,-2.85
2023-02-14T03:40:11.504Z,-2.79
2023-02-14T03:42:42.917Z,-2.88
2023-02-14T03:45:14.585Z,-2.64
2023-02-14T03:47:44.673Z,-2.65
2023-02-14T03:50:16.865Z,-2.71
2023-02-14T03:52:46.039Z,-2.77
2023-02-14T03:55:18.429Z,-2.93
2023-02-14T03:57:50.667Z,-3.15
2023-02-14T04:00:19.862Z,-2.85
2023-02-14T04:02:50.342Z,-3.01
2023-02-14T04:05:20.996Z,-3.03
2023-02-14T04:07:50.814Z,-3.09
2023-02-14T04:10:20.770Z,-3.17
2023-02-14T04:12:49.097Z,-3.35
2023-02-14T04:15:17.838Z,-3.37
2023-02-14T04:18:03.055Z,-3.32
2023-02-14T04:20:31.423Z,-3.19
2023-02-14T04:22:59.961Z,-3.12
2023-02-14T04:25:30.498Z,-3.01
2023-02-14T04:27:58.386Z,-3.17
2023-02-14T04:30:26.483Z,-3.25
2023-02-14T04:32:54.451Z,-3.03
2023-02-14T04:35:22.401Z,-3.05
2023-02-14T04:37:50.279Z,-3.10
2023-02-14T04:40:18.199Z,-3.16
2023-02-14T04:42:47.832Z,-3.19
2023-02-14T04:45:16.056Z,-3.42
2023-02-14T04:47:43.962Z,-3.42
2023-02-14T04:50:12.051Z,-3.52
2023-02-14T04:52:40.134Z,-3.61
2023-02-14T04:55:09.517Z,-3.64
2023-02-14T04:57:37.606Z,-3.65
2023-02-14T05:00:08.263Z,-3.66
2023-02-14T05:02:36.175Z,-3.59
2023-02-14T05:05:04.073Z,-3.68
2023-02-14T05:07:31.980Z,-3.63
2023-02-14T05:09:59.921Z,-3.53
2023-02-14T05:12:28.069Z,-3.45
2023-02-14T05:14:57.671Z,-3.30
2023-02-14T05:17:27.082Z,-3.23
2023-02-14T05:19:54.979Z,-3.19
2023-02-14T05:22:22.877Z,-3.04
2023-02-14T05:24:50.848Z,-3.14
2023-02-14T05:27:18.770Z,-3.24
2023-02-14T05:29:46.705Z,-3.36
2023-02-14T05:32:14.687Z,-3.46
2023-02-14T05:34:43.983Z,-3.51
2023-02-14T05:37:11.934Z,-3.69
2023-02-14T05:39:39.823Z,-3.70
2023-02-14T05:44:35.534Z,-3.88
2023-02-14T05:47:03.412Z,-3.87
2023-02-14T05:49:31.361Z,-3.82
2023-02-14T05:52:00.629Z,-3.72
2023-02-14T05:54:28.559Z,-3.93
2023-02-14T05:56:56.502Z,-3.77
2023-02-14T05:59:24.411Z,-3.90
2023-02-14T06:01:52.364Z,-3.81
2023-02-14T06:04:20.292Z,-3.75
2023-02-14T06:06:48.175Z,-3.79
2023-02-14T06:09:17.579Z,-3.81
2023-02-14T06:11:45.480Z,-3.78
2023-02-14T06:14:13.447Z,-3.85
2023-02-14T06:16:41.413Z,-3.92
2023-02-14T06:19:09.450Z,-3.84
2023-02-14T06:21:37.365Z,-3.86
2023-02-14T06:24:05.500Z,-3.97
2023-02-14T06:26:36.134Z,-3.97
2023-02-14T06:29:05.034Z,-3.96
2023-02-14T06:31:33.414Z,-3.93
2023-02-14T06:34:01.458Z,-3.81
2023-02-14T06:36:29.384Z,-3.89
2023-02-14T06:38:57.301Z,-3.76
2023-02-14T06:41:25.359Z,-3.60
2023-02-14T06:43:54.612Z,-3.52
2023-02-14T06:46:23.108Z,-3.61
2023-02-14T06:48:51.118Z,-3.61
2023-02-14T06:51:19.023Z,-3.44
2023-02-14T06:53:46.947Z,-3.29
2023-02-14T06:56:14.899Z,-3.50
2023-02-14T06:58:42.813Z,-3.39
2023-02-14T07:01:12.181Z,-3.07
2023-02-14T07:03:40.118Z,-3.01
2023-02-14T07:06:08.107Z,-2.91
2023-02-14T07:08:36.014Z,-2.65
2023-02-14T07:11:03.955Z,-2.54
2023-02-14T07:13:31.859Z,-2.51
2023-02-14T07:15:59.789Z,-2.18
2023-02-14T07:18:29.120Z,-2.31
2023-02-14T07:20:57.179Z,-2.28
2023-02-14T07:23:25.102Z,-2.16
2023-02-14T07:25:53.015Z,-2.20
2023-02-14T07:28:22.015Z,-2.01
2023-02-14T07:30:50.043Z,-1.56
2023-02-14T07:33:18.009Z,-1.45
2023-02-14T07:35:47.320Z,-1.22
2023-02-14T07:38:15.234Z,-1.51
2023-02-14T07:40:43.140Z,-1.50
2023-02-14T07:43:11.043Z,-1.37
2023-02-14T07:45:38.971Z,-1.44
2023-02-14T07:48:07.533Z,-1.39
2023-02-14T07:50:35.423Z,-1.54
2023-02-14T07:53:04.722Z,-1.61
2023-02-14T07:55:32.594Z,-1.64
2023-02-14T07:58:00.550Z,-1.80
2023-02-14T08:00:28.696Z,-1.68
2023-02-14T08:02:57.114Z,-2.05
2023-02-14T08:05:25.309Z,-2.06
2023-02-14T08:07:53.300Z,-2.10
2023-02-14T08:10:22.674Z,-1.73
2023-02-14T08:13:03.623Z,-1.67
2023-02-14T08:15:50.683Z,-1.61
2023-02-14T08:18:19.437Z,-1.70
2023-02-14T08:20:48.742Z,-1.65
2023-02-14T08:23:18.454Z,-1.57
2023-02-14T08:25:47.742Z,-1.61
2023-02-14T08:28:15.799Z,-1.40
2023-02-14T08:30:44.862Z,-1.06
2023-02-14T08:33:12.880Z,-1.11
2023-02-14T08:35:40.916Z,-1.01
2023-02-14T08:38:09.263Z,-0.84
2023-02-14T08:40:37.713Z,-0.85
2023-02-14T08:43:07.599Z,-0.44
2023-02-14T08:45:35.566Z,-0.38
2023-02-14T08:48:05.073Z,-0.40
2023-02-14T08:50:33.217Z,-0.31
2023-02-14T08:53:01.510Z,0.06
2023-02-14T08:55:29.509Z,0.01
2023-02-14T08:57:58.072Z,-0.03
2023-02-14T09:00:27.789Z,0.18
2023-02-14T09:02:55.790Z,0.04
2023-02-14T09:05:24.388Z,0.24
2023-02-14T09:07:52.567Z,0.28
2023-02-14T09:10:20.493Z,0.38
2023-02-14T09:12:48.382Z,0.36
2023-02-14T09:15:16.277Z,0.30
2023-02-14T09:17:45.727Z,0.58
2023-02-14T09:20:15.480Z,0.65
2023-02-14T09:22:43.576Z,0.37
2023-02-14T09:25:12.014Z,0.79
2023-02-14T09:27:40.046Z,0.80
2023-02-14T09:30:09.583Z,0.89
2023-02-14T09:32:37.567Z,0.99
2023-02-14T09:35:07.987Z,0.99
2023-02-14T09:37:53.226Z,1.05
2023-02-14T09:40:21.964Z,1.11
2023-02-14T09:43:02.009Z,1.20
2023-02-14T09:45:31.388Z,1.10
2023-02-14T09:48:02.839Z,1.28
2023-02-14T09:50:35.415Z,1.42
2023-02-14T09:53:08.260Z,1.62
2023-02-14T09:55:40.202Z,1.81
2023-02-14T09:58:14.764Z,1.64
2023-02-14T10:00:47.276Z,1.86
2023-02-14T10:04:02.732Z,1.92
2023-02-14T10:06:47.768Z,1.92
2023-02-14T10:09:32.623Z,2.33
2023-02-14T10:12:02.095Z,2.57
2023-02-14T10:14:33.941Z,2.60
2023-02-14T10:17:07.062Z,2.87
2023-02-14T10:19:39.467Z,2.40
2023-02-14T10:22:12.346Z,2.48
2023-02-14T10:24:43.746Z,2.68
2023-02-14T10:27:19.403Z,2.67
2023-02-14T10:29:47.367Z,2.59
2023-02-14T10:32:16.232Z,2.67
2023-02-14T10:34:48.185Z,2.57
2023-02-14T10:37:29.044Z,2.60
2023-02-14T10:40:10.667Z,2.65
2023-02-14T10:42:46.395Z,2.97
2023-02-14T10:45:19.925Z,2.73
2023-02-14T10:47:53.812Z,2.96
2023-02-14T10:50:25.987Z,2.84
2023-02-14T10:53:00.971Z,3.34
2023-02-14T10:55:38.335Z,3.48
2023-02-14T10:58:07.711Z,3.20
2023-02-14T11:00:36.980Z,3.31
2023-02-14T11:03:08.553Z,3.14
2023-02-14T11:05:38.933Z,3.30
2023-02-14T11:08:15.845Z,3.34
2023-02-14T11:10:43.830Z,3.33
2023-02-14T11:13:33.982Z,3.38
2023-02-14T11:16:03.812Z,3.19
2023-02-14T11:18:35.633Z,3.30
2023-02-14T11:21:06.087Z,3.32
2023-02-14T11:23:37.905Z,3.09
2023-02-14T11:26:08.356Z,3.21
2023-02-14T11:28:36.536Z,3.15
2023-02-14T11:31:05.210Z,3.12
2023-02-14T11:33:38.755Z,3.14
2023-02-14T11:36:11.892Z,3.37
2023-02-14T11:38:42.255Z,3.40
2023-02-14T11:41:11.716Z,3.54
2023-02-14T11:43:40.838Z,3.65
2023-02-14T11:46:15.269Z,3.67
2023-02-14T11:48:58.871Z,3.67
2023-02-14T11:51:29.210Z,3.68
2023-02-14T11:54:04.764Z,3.60
2023-02-14T11:56:48.889Z,3.54
2023-02-14T11:59:26.866Z,3.92
2023-02-14T12:01:55.385Z,3.83
2023-02-14T12:04:26.606Z,3.72
2023-02-14T12:07:14.441Z,3.92
2023-02-14T12:09:44.342Z,3.94
2023-02-14T12:12:19.002Z,3.74
2023-02-14T12:14:47.209Z,4.02
2023-02-14T12:17:30.103Z,3.89
2023-02-14T12:20:03.419Z,3.69
2023-02-14T12:22:35.256Z,3.66
2023-02-14T12:25:08.620Z,3.97
2023-02-14T12:27:45.591Z,3.84
2023-02-14T12:30:16.961Z,3.88
2023-02-14T12:32:49.145Z,3.97
2023-02-14T12:35:19.225Z,3.84
2023-02-14T12:38:03.966Z,3.88
2023-02-14T12:40:39.073Z,4.00
2023-02-14T12:43:33.679Z,3.86
2023-02-14T12:46:12.861Z,3.68
2023-02-14T12:48:54.346Z,3.80
2023-02-14T12:51:26.142Z,3.98
2023-02-14T12:54:02.414Z,3.73
2023-02-14T12:56:41.562Z,3.53
2023-02-14T12:59:19.178Z,3.81
2023-02-14T13:02:11.546Z,3.67
2023-02-14T13:04:55.503Z,3.61
2023-02-14T13:07:38.121Z,3.62
2023-02-14T13:10:14.566Z,3.30
2023-02-14T13:12:48.867Z,3.40
2023-02-14T13:15:23.541Z,3.41
2023-02-14T13:17:54.870Z,3.74
2023-02-14T13:20:35.410Z,3.52
2023-02-14T13:23:06.190Z,3.52
2023-02-14T13:25:40.492Z,3.54
2023-02-14T13:28:14.179Z,3.48
2023-02-14T13:30:43.180Z,3.32
2023-02-14T13:33:27.104Z,3.45
2023-02-14T13:35:58.090Z,3.76
2023-02-14T13:38:27.260Z,3.68
2023-02-14T13:40:56.098Z,3.82
2023-02-14T13:43:47.632Z,3.70
2023-02-14T13:46:16.684Z,3.62
2023-02-14T13:48:48.065Z,3.76
2023-02-14T13:51:15.975Z,3.77
2023-02-14T13:53:45.357Z,3.54
2023-02-14T13:56:34.632Z,3.80
2023-02-14T13:59:06.427Z,3.81
2023-02-14T14:01:40.550Z,3.73
2023-02-14T14:04:35.810Z,3.80
2023-02-14T14:07:23.171Z,3.85
2023-02-14T14:09:56.325Z,3.63
2023-02-14T14:12:45.879Z,3.69
2023-02-14T14:15:17.488Z,3.85
2023-02-14T14:17:50.054Z,4.03
2023-02-14T14:20:47.905Z,3.62
2023-02-14T14:23:43.297Z,3.70
2023-02-14T14:26:36.233Z,3.77
2023-02-14T14:29:11.390Z,3.77
2023-02-14T14:31:42.130Z,3.86
2023-02-14T14:34:17.488Z,3.84
2023-02-14T14:36:45.650Z,3.85
2023-02-14T14:39:13.636Z,3.84
2023-02-14T14:41:41.894Z,3.59
2023-02-14T14:44:09.843Z,3.43
2023-02-14T14:46:38.295Z,3.54
2023-02-14T14:49:10.778Z,3.39
2023-02-14T14:51:38.892Z,3.46
2023-02-14T14:54:08.482Z,3.42
2023-02-14T14:56:39.402Z,3.44
2023-02-14T14:59:21.282Z,3.28
2023-02-14T15:01:50.285Z,3.22
2023-02-14T15:04:20.898Z,3.21
2023-02-14T15:06:50.424Z,3.11
2023-02-14T15:09:23.843Z,3.07
2023-02-14T15:12:11.218Z,2.90
2023-02-14T15:14:42.442Z,3.00
2023-02-14T15:17:17.484Z,3.12
2023-02-14T15:19:48.651Z,2.86
2023-02-14T15:22:21.193Z,2.65
2023-02-14T15:24:49.541Z,2.48
2023-02-14T15:27:18.615Z,2.31
2023-02-14T15:29:55.316Z,2.21
2023-02-14T15:32:24.459Z,1.97
2023-02-14T15:34:53.951Z,1.91
2023-02-14T15:37:22.604Z,1.78
2023-02-14T15:39:52.430Z,1.60
2023-02-14T15:42:22.821Z,1.49
2023-02-14T15:44:50.768Z,1.38
2023-02-14T15:47:18.700Z,1.27
2023-02-14T15:49:47.585Z,1.12
2023-02-14T15:52:16.912Z,1.11
2023-02-14T15:54:46.454Z,1.12
2023-02-14T15:57:21.198Z,0.96
2023-02-14T15:59:49.192Z,0.85
2023-02-14T16:02:29.315Z,0.75
2023-02-14T16:05:04.774Z,0.67
2023-02-14T16:07:34.265Z,0.52
2023-02-14T16:10:21.745Z,0.35
2023-02-14T16:12:58.322Z,0.26
2023-02-14T16:15:27.403Z,0.04
2023-02-14T16:17:55.381Z,0.03
2023-02-14T16:20:39.827Z,-0.08
2023-02-14T16:23:21.120Z,-0.09
2023-02-14T16:25:49.771Z,-0.16
2023-02-14T16:28:18.295Z,-0.20
2023-02-14T16:30:48.064Z,-0.20
2023-02-14T16:33:19.937Z,-0.21
2023-02-14T16:35:48.018Z,-0.27
2023-02-14T16:38:18.694Z,-0.32
2023-02-14T16:40:48.355Z,-0.33
2023-02-14T16:43:17.255Z,-0.39
2023-02-14T16:45:45.913Z,-0.35
2023-02-14T16:48:15.809Z,-0.49
2023-02-14T16:50:44.505Z,-0.49
2023-02-14T16:53:22.655Z,-0.55
2023-02-14T16:55:50.954Z,-0.54
2023-02-14T16:58:19.546Z,-0.64
2023-02-14T17:00:47.477Z,-0.70
2023-02-14T17:03:15.391Z,-0.74
2023-02-14T17:05:43.442Z,-0.71
2023-02-14T17:08:13.529Z,-0.65
2023-02-14T17:10:43.174Z,-0.77
2023-02-14T17:13:11.693Z,-0.74
2023-02-14T17:15:40.845Z,-0.71
2023-02-14T17:18:11.615Z,-0.73
2023-02-14T17:20:39.711Z,-0.65
2023-02-14T17:23:07.608Z,-0.68
2023-02-14T17:25:35.611Z,-0.58
2023-02-14T17:28:05.266Z,-0.79
2023-02-14T17:30:33.208Z,-0.87
2023-02-14T17:33:01.429Z,-0.71
2023-02-14T17:35:30.015Z,-0.94
2023-02-14T17:37:57.962Z,-0.89
2023-02-14T17:40:25.867Z,-1.04
2023-02-14T17:42:53.766Z,-1.18
2023-02-14T17:45:23.330Z,-1.12
2023-02-14T17:47:51.234Z,-1.06
2023-02-14T17:50:19.203Z,-1.01
2023-02-14T17:52:47.183Z,-1.07
2023-02-14T17:55:15.814Z,-1.01
2023-02-14T17:57:43.773Z,-0.98
2023-02-14T18:00:14.179Z,-0.82
2023-02-14T18:02:43.487Z,-0.92
2023-02-14T18:05:12.287Z,-0.93
2023-02-14T18:07:40.187Z,-0.91
2023-02-14T18:10:08.826Z,-1.06
2023-02-14T18:12:36.741Z,-1.12
2023-02-14T18:15:05.629Z,-0.98
2023-02-14T18:17:33.583Z,-0.91
2023-02-14T18:20:03.359Z,-0.87
2023-02-14T18:22:32.488Z,-0.96
2023-02-14T18:25:00.407Z,-0.81
2023-02-14T18:27:28.289Z,-0.88
2023-02-14T18:29:56.550Z,-0.96
2023-02-14T18:32:24.466Z,-0.96
2023-02-14T18:34:52.493Z,-0.84
2023-02-14T18:37:22.162Z,-0.67
2023-02-14T18:39:50.069Z,-0.66
2023-02-14T18:42:17.970Z,-0.71
2023-02-14T18:44:45.851Z,-0.73
2023-02-14T18:47:14.009Z,-0.68
2023-02-14T18:49:41.879Z,-0.72
2023-02-14T18:52:10.412Z,-0.75
2023-02-14T18:54:39.719Z,-0.56
2023-02-14T18:57:08.243Z,-0.50
2023-02-14T18:59:36.148Z,-0.40
2023-02-14T19:02:04.117Z,-0.39
2023-02-14T19:04:32.225Z,-0.38
2023-02-14T19:07:00.154Z,-0.42
2023-02-14T19:09:29.480Z,-0.36
2023-02-14T19:12:00.058Z,-0.18
2023-02-14T19:14:28.187Z,-0.23
2023-02-14T19:16:56.092Z,-0.21
2023-02-14T19:19:24.118Z,-0.18
2023-02-14T19:21:52.336Z,-0.17
2023-02-14T19:24:21.220Z,-0.17
2023-02-14T19:26:49.407Z,-0.24
2023-02-14T19:29:20.242Z,-0.31
2023-02-14T19:31:49.895Z,-0.15
2023-02-14T19:34:19.139Z,-0.28
2023-02-14T19:36:48.140Z,-0.18
2023-02-14T19:39:16.659Z,-0.10
2023-02-14T19:41:44.552Z,-0.11
2023-02-14T19:44:14.786Z,0.02
2023-02-14T19:46:46.085Z,0.06
2023-02-14T19:49:15.772Z,0.00
2023-02-14T19:51:44.575Z,-0.10
2023-02-14T19:54:12.983Z,-0.01
2023-02-14T19:56:42.785Z,0.00
2023-02-14T19:59:11.187Z,0.15
2023-02-14T20:01:41.530Z,0.24
2023-02-14T20:04:14.660Z,0.27
2023-02-14T20:06:42.924Z,0.17
2023-02-14T20:09:10.941Z,0.10
2023-02-14T20:11:41.482Z,0.31
2023-02-14T20:14:10.026Z,0.32
2023-02-14T20:16:38.285Z,0.44
2023-02-14T20:19:11.977Z,0.48
2023-02-14T20:21:42.058Z,0.37
2023-02-14T20:24:10.616Z,0.33
2023-02-14T20:26:41.615Z,0.44
2023-02-14T20:29:11.237Z,0.42
2023-02-14T20:31:43.642Z,0.42
2023-02-14T20:34:12.188Z,0.32
2023-02-14T20:36:42.637Z,0.27
2023-02-14T20:39:11.394Z,0.28
2023-02-14T20:41:39.342Z,0.23
2023-02-14T20:44:09.068Z,0.25
2023-02-14T20:46:37.248Z,0.33
2023-02-14T20:49:05.483Z,0.22
2023-02-14T20:51:35.007Z,0.15
2023-02-14T20:54:05.529Z,0.18
2023-02-14T20:56:33.508Z,0.40
2023-02-14T20:59:01.766Z,0.43
2023-02-14T21:01:30.237Z,0.34
2023-02-14T21:03:58.266Z,0.47
2023-02-14T21:06:29.987Z,0.45
2023-02-14T21:08:58.543Z,0.62
2023-02-14T21:11:28.951Z,0.59
2023-02-14T21:13:59.559Z,0.60
2023-02-14T21:16:28.739Z,0.57
2023-02-14T21:18:59.566Z,0.61
2023-02-14T21:21:32.500Z,0.62
2023-02-14T21:24:01.340Z,0.69
2023-02-14T21:26:30.985Z,0.68
2023-02-14T21:28:58.878Z,0.71
2023-02-14T21:31:26.851Z,0.61
2023-02-14T21:33:57.262Z,0.66
2023-02-14T21:36:27.795Z,0.94
2023-02-14T21:38:58.014Z,0.93
2023-02-14T21:41:27.060Z,0.85
2023-02-14T21:43:57.404Z,0.81
2023-02-14T21:46:27.463Z,0.73
2023-02-14T21:49:13.170Z,0.66
2023-02-14T21:51:41.332Z,0.66
2023-02-14T21:54:09.673Z,0.69
2023-02-14T21:56:38.921Z,0.68
2023-02-14T21:59:08.993Z,0.66
2023-02-14T22:01:38.707Z,0.65
2023-02-14T22:04:09.179Z,0.48
2023-02-14T22:06:39.076Z,0.61
2023-02-14T22:09:07.403Z,0.66
2023-02-14T22:11:35.910Z,0.99
2023-02-14T22:14:03.964Z,0.61
2023-02-14T22:16:33.449Z,0.77
2023-02-14T22:19:01.338Z,0.87
2023-02-14T22:21:31.050Z,0.90
2023-02-14T22:23:59.083Z,0.77
2023-02-14T22:26:28.525Z,0.67
2023-02-14T22:28:59.158Z,0.62
2023-02-14T22:31:28.650Z,0.56
2023-02-14T22:33:57.935Z,0.58
2023-02-14T22:36:25.853Z,0.69
2023-02-14T22:38:54.041Z,0.51
2023-02-14T22:41:23.957Z,0.52
2023-02-14T22:43:52.730Z,0.60
2023-02-14T22:46:22.175Z,0.64
2023-02-14T22:48:50.917Z,0.57
2023-02-14T22:51:23.479Z,0.47
2023-02-14T22:53:54.072Z,0.49
2023-02-14T22:56:23.411Z,0.47
2023-02-14T22:58:57.984Z,0.52
2023-02-14T23:01:26.298Z,0.38
2023-02-14T23:03:54.788Z,0.39
2023-02-14T23:06:24.465Z,0.70
2023-02-14T23:08:52.659Z,0.65
2023-02-14T23:11:22.066Z,0.61
2023-02-14T23:14:06.434Z,0.81
2023-02-14T23:16:51.607Z,0.75
2023-02-14T23:19:38.317Z,0.74
2023-02-14T23:22:08.969Z,0.70
2023-02-14T23:24:37.007Z,0.63
2023-02-14T23:27:05.321Z,0.42
2023-02-14T23:29:33.547Z,0.44
2023-02-14T23:32:01.514Z,0.33
2023-02-14T23:34:31.292Z,0.31
2023-02-14T23:36:59.683Z,0.49
2023-02-14T23:39:29.096Z,0.61
2023-02-14T23:41:57.003Z,0.58
2023-02-14T23:44:26.025Z,0.53
2023-02-14T23:46:56.157Z,0.40
2023-02-14T23:49:24.828Z,0.60
2023-02-14T23:51:54.203Z,0.75
2023-02-14T23:54:23.842Z,0.54
2023-02-14T23:56:53.880Z,0.65
2023-02-14T23:59:22.999Z,0.55
